sensor_id;sensor_type;location;lat;lon;timestamp;pressure;altitude;pressure_sealevel;temperature;humidity
9335;BME280;4706;41.844;26.082;2023-05-21T00:01:24;100403.41;;;19.44;81.97
9335;BME280;4706;41.844;26.082;2023-05-21T00:03:50;100400.34;;;19.49;81.65
9335;BME280;4706;41.844;26.082;2023-05-21T00:06:15;100396.38;;;19.50;81.51
9335;BME280;4706;41.844;26.082;2023-05-21T00:08:41;100394.84;;;19.52;81.57
9335;BME280;4706;41.844;26.082;2023-05-21T00:11:07;100391.69;;;19.54;81.13
9335;BME280;4706;41.844;26.082;2023-05-21T00:13:33;100382.34;;;19.46;81.55
9335;BME280;4706;41.844;26.082;2023-05-21T00:15:58;100384.75;;;19.48;81.90
9335;BME280;4706;41.844;26.082;2023-05-21T00:18:24;100384.41;;;19.49;81.96
9335;BME280;4706;41.844;26.082;2023-05-21T00:20:50;100376.78;;;19.46;82.12
9335;BME280;4706;41.844;26.082;2023-05-21T00:23:15;100378.03;;;19.49;81.96
9335;BME280;4706;41.844;26.082;2023-05-21T00:25:43;100377.16;;;19.45;82.31
9335;BME280;4706;41.844;26.082;2023-05-21T00:28:09;100367.16;;;19.44;81.98
9335;BME280;4706;41.844;26.082;2023-05-21T00:30:35;100368.72;;;19.41;82.24
9335;BME280;4706;41.844;26.082;2023-05-21T00:33:01;100368.97;;;19.36;82.01
9335;BME280;4706;41.844;26.082;2023-05-21T00:35:27;100372.50;;;19.33;82.38
9335;BME280;4706;41.844;26.082;2023-05-21T00:37:53;100363.78;;;19.34;82.32
9335;BME280;4706;41.844;26.082;2023-05-21T00:40:19;100367.00;;;19.36;81.83
9335;BME280;4706;41.844;26.082;2023-05-21T00:42:45;100381.81;;;19.40;81.72
9335;BME280;4706;41.844;26.082;2023-05-21T00:45:12;100377.72;;;19.34;82.37
9335;BME280;4706;41.844;26.082;2023-05-21T00:47:42;100379.84;;;19.41;82.41
9335;BME280;4706;41.844;26.082;2023-05-21T00:50:09;100380.16;;;19.55;80.90
9335;BME280;4706;41.844;26.082;2023-05-21T00:52:34;100377.56;;;19.47;81.45
9335;BME280;4706;41.844;26.082;2023-05-21T00:55:06;100369.78;;;19.36;81.87
9335;BME280;4706;41.844;26.082;2023-05-21T00:57:32;100366.47;;;19.31;82.44
9335;BME280;4706;41.844;26.082;2023-05-21T00:59:58;100369.69;;;19.33;82.28
9335;BME280;4706;41.844;26.082;2023-05-21T01:02:24;100368.81;;;19.29;82.24
9335;BME280;4706;41.844;26.082;2023-05-21T01:04:53;100361.25;;;19.29;82.33
9335;BME280;4706;41.844;26.082;2023-05-21T01:07:19;100362.97;;;19.34;81.66
9335;BME280;4706;41.844;26.082;2023-05-21T01:09:44;100354.88;;;19.29;81.76
9335;BME280;4706;41.844;26.082;2023-05-21T01:12:11;100361.25;;;19.29;81.44
9335;BME280;4706;41.844;26.082;2023-05-21T01:14:37;100356.44;;;19.26;80.63
9335;BME280;4706;41.844;26.082;2023-05-21T01:17:04;100359.38;;;19.33;80.09
9335;BME280;4706;41.844;26.082;2023-05-21T01:19:34;100352.47;;;19.27;80.16
9335;BME280;4706;41.844;26.082;2023-05-21T01:22:05;100353.19;;;19.24;79.91
9335;BME280;4706;41.844;26.082;2023-05-21T01:24:30;100351.66;;;19.27;80.38
9335;BME280;4706;41.844;26.082;2023-05-21T01:26:58;100350.84;;;19.26;80.30
9335;BME280;4706;41.844;26.082;2023-05-21T01:29:24;100357.56;;;19.25;80.45
9335;BME280;4706;41.844;26.082;2023-05-21T01:37:45;100347.25;;;19.26;83.29
9335;BME280;4706;41.844;26.082;2023-05-21T01:42:51;100331.00;;;19.12;84.29
9335;BME280;4706;41.844;26.082;2023-05-21T01:45:17;100335.72;;;19.08;84.63
9335;BME280;4706;41.844;26.082;2023-05-21T01:47:46;100333.34;;;19.10;83.71
9335;BME280;4706;41.844;26.082;2023-05-21T01:50:13;100336.81;;;19.03;83.23
9335;BME280;4706;41.844;26.082;2023-05-21T01:52:47;100332.59;;;18.93;84.18
9335;BME280;4706;41.844;26.082;2023-05-21T01:55:12;100340.94;;;18.93;83.68
9335;BME280;4706;41.844;26.082;2023-05-21T01:57:38;100340.31;;;19.00;84.02
9335;BME280;4706;41.844;26.082;2023-05-21T02:00:04;100326.22;;;18.93;83.59
9335;BME280;4706;41.844;26.082;2023-05-21T02:02:30;100334.38;;;19.02;82.92
9335;BME280;4706;41.844;26.082;2023-05-21T02:04:56;100340.31;;;19.00;83.51
9335;BME280;4706;41.844;26.082;2023-05-21T02:07:21;100347.03;;;18.99;83.60
9335;BME280;4706;41.844;26.082;2023-05-21T02:09:46;100352.28;;;19.01;83.58
9335;BME280;4706;41.844;26.082;2023-05-21T02:12:12;100335.84;;;18.96;83.61
9335;BME280;4706;41.844;26.082;2023-05-21T02:14:37;100338.16;;;18.93;83.60
9335;BME280;4706;41.844;26.082;2023-05-21T02:17:03;100346.44;;;18.90;83.84
9335;BME280;4706;41.844;26.082;2023-05-21T02:19:29;100335.66;;;18.88;83.37
9335;BME280;4706;41.844;26.082;2023-05-21T02:21:54;100349.69;;;18.92;83.96
9335;BME280;4706;41.844;26.082;2023-05-21T02:24:20;100350.50;;;18.92;83.80
9335;BME280;4706;41.844;26.082;2023-05-21T02:26:46;100350.13;;;18.94;83.42
9335;BME280;4706;41.844;26.082;2023-05-21T02:29:13;100341.31;;;18.92;83.54
9335;BME280;4706;41.844;26.082;2023-05-21T02:31:39;100343.91;;;19.01;83.13
9335;BME280;4706;41.844;26.082;2023-05-21T02:34:05;100339.25;;;18.89;83.87
9335;BME280;4706;41.844;26.082;2023-05-21T02:36:32;100336.19;;;18.94;83.88
9335;BME280;4706;41.844;26.082;2023-05-21T02:38:57;100329.00;;;18.93;84.05
9335;BME280;4706;41.844;26.082;2023-05-21T02:41:23;100331.78;;;18.93;84.17
9335;BME280;4706;41.844;26.082;2023-05-21T02:43:48;100328.47;;;18.87;84.42
9335;BME280;4706;41.844;26.082;2023-05-21T02:46:14;100326.34;;;18.81;84.72
9335;BME280;4706;41.844;26.082;2023-05-21T02:48:40;100335.84;;;18.96;83.56
9335;BME280;4706;41.844;26.082;2023-05-21T02:51:05;100340.78;;;18.86;84.15
9335;BME280;4706;41.844;26.082;2023-05-21T02:53:31;100349.69;;;18.92;83.71
9335;BME280;4706;41.844;26.082;2023-05-21T02:55:56;100355.34;;;18.80;84.66
9335;BME280;4706;41.844;26.082;2023-05-21T02:58:22;100351.03;;;18.66;85.05
9335;BME280;4706;41.844;26.082;2023-05-21T03:00:50;100361.94;;;18.72;84.25
9335;BME280;4706;41.844;26.082;2023-05-21T03:03:17;100366.31;;;18.73;84.24
9335;BME280;4706;41.844;26.082;2023-05-21T03:05:43;100345.09;;;18.68;84.98
9335;BME280;4706;41.844;26.082;2023-05-21T03:08:10;100357.00;;;18.81;85.07
9335;BME280;4706;41.844;26.082;2023-05-21T03:10:35;100362.38;;;18.74;85.48
9335;BME280;4706;41.844;26.082;2023-05-21T03:13:01;100362.00;;;18.75;85.38
9335;BME280;4706;41.844;26.082;2023-05-21T03:15:29;100347.88;;;18.68;85.10
9335;BME280;4706;41.844;26.082;2023-05-21T03:17:58;100355.72;;;18.78;85.22
9335;BME280;4706;41.844;26.082;2023-05-21T03:20:23;100357.25;;;18.76;85.52
9335;BME280;4706;41.844;26.082;2023-05-21T03:22:49;100359.22;;;18.75;85.18
9335;BME280;4706;41.844;26.082;2023-05-21T03:25:14;100366.69;;;18.71;85.42
9335;BME280;4706;41.844;26.082;2023-05-21T03:27:39;100373.75;;;18.68;86.44
9335;BME280;4706;41.844;26.082;2023-05-21T03:30:05;100378.31;;;18.73;87.45
9335;BME280;4706;41.844;26.082;2023-05-21T03:32:31;100379.09;;;18.74;87.54
9335;BME280;4706;41.844;26.082;2023-05-21T03:35:03;100363.69;;;18.64;87.49
9335;BME280;4706;41.844;26.082;2023-05-21T03:37:29;100377.56;;;18.76;87.56
9335;BME280;4706;41.844;26.082;2023-05-21T03:39:54;100383.88;;;18.73;87.96
9335;BME280;4706;41.844;26.082;2023-05-21T03:42:21;100376.41;;;18.77;87.87
9335;BME280;4706;41.844;26.082;2023-05-21T03:44:46;100374.50;;;18.81;88.37
9335;BME280;4706;41.844;26.082;2023-05-21T03:47:12;100373.16;;;18.75;88.76
9335;BME280;4706;41.844;26.082;2023-05-21T03:49:37;100380.25;;;18.73;88.96
9335;BME280;4706;41.844;26.082;2023-05-21T03:52:03;100371.19;;;18.76;88.92
9335;BME280;4706;41.844;26.082;2023-05-21T03:54:28;100367.22;;;18.77;89.25
9335;BME280;4706;41.844;26.082;2023-05-21T03:56:54;100369.66;;;18.78;89.17
9335;BME280;4706;41.844;26.082;2023-05-21T03:59:19;100364.50;;;18.80;88.79
9335;BME280;4706;41.844;26.082;2023-05-21T04:01:45;100374.22;;;18.86;89.52
9335;BME280;4706;41.844;26.082;2023-05-21T04:04:11;100371.72;;;18.81;88.95
9335;BME280;4706;41.844;26.082;2023-05-21T04:06:36;100370.47;;;18.79;89.11
9335;BME280;4706;41.844;26.082;2023-05-21T04:09:02;100376.63;;;18.88;88.75
9335;BME280;4706;41.844;26.082;2023-05-21T04:11:29;100378.28;;;18.89;88.69
9335;BME280;4706;41.844;26.082;2023-05-21T04:13:55;100372.69;;;18.89;88.79
9335;BME280;4706;41.844;26.082;2023-05-21T04:16:21;100368.75;;;18.90;88.56
9335;BME280;4706;41.844;26.082;2023-05-21T04:18:46;100369.03;;;18.85;88.28
9335;BME280;4706;41.844;26.082;2023-05-21T04:21:12;100367.84;;;18.86;88.05
9335;BME280;4706;41.844;26.082;2023-05-21T04:23:38;100389.03;;;18.90;88.77
9335;BME280;4706;41.844;26.082;2023-05-21T04:26:04;100389.84;;;18.91;89.04
9335;BME280;4706;41.844;26.082;2023-05-21T04:28:29;100380.88;;;18.82;88.52
9335;BME280;4706;41.844;26.082;2023-05-21T04:30:55;100401.00;;;18.91;88.75
9335;BME280;4706;41.844;26.082;2023-05-21T04:33:21;100386.19;;;18.87;90.17
9335;BME280;4706;41.844;26.082;2023-05-21T04:35:49;100393.53;;;18.95;90.57
9335;BME280;4706;41.844;26.082;2023-05-21T04:38:15;100376.28;;;18.89;91.26
9335;BME280;4706;41.844;26.082;2023-05-21T04:40:47;100382.38;;;18.95;91.26
9335;BME280;4706;41.844;26.082;2023-05-21T04:43:15;100371.06;;;18.88;91.71
9335;BME280;4706;41.844;26.082;2023-05-21T04:45:42;100367.84;;;18.86;92.35
9335;BME280;4706;41.844;26.082;2023-05-21T04:48:08;100378.34;;;18.92;92.51
9335;BME280;4706;41.844;26.082;2023-05-21T04:50:33;100373.03;;;19.03;93.46
9335;BME280;4706;41.844;26.082;2023-05-21T04:52:59;100377.78;;;19.03;94.15
9335;BME280;4706;41.844;26.082;2023-05-21T04:55:25;100392.09;;;19.01;94.37
9335;BME280;4706;41.844;26.082;2023-05-21T04:57:51;100389.19;;;19.13;93.03
9335;BME280;4706;41.844;26.082;2023-05-21T05:00:17;100398.34;;;19.14;92.07
9335;BME280;4706;41.844;26.082;2023-05-21T05:02:43;100395.06;;;19.08;92.80
9335;BME280;4706;41.844;26.082;2023-05-21T05:05:08;100397.47;;;19.10;93.68
9335;BME280;4706;41.844;26.082;2023-05-21T05:07:34;100391.09;;;19.09;94.35
9335;BME280;4706;41.844;26.082;2023-05-21T05:09:59;100399.19;;;19.14;94.54
9335;BME280;4706;41.844;26.082;2023-05-21T05:12:25;100379.66;;;19.14;94.41
9335;BME280;4706;41.844;26.082;2023-05-21T05:14:50;100390.53;;;19.20;94.55
9335;BME280;4706;41.844;26.082;2023-05-21T05:17:16;100395.06;;;19.08;95.51
9335;BME280;4706;41.844;26.082;2023-05-21T05:19:41;100388.28;;;19.09;93.51
9335;BME280;4706;41.844;26.082;2023-05-21T05:22:07;100398.81;;;19.16;93.00
9335;BME280;4706;41.844;26.082;2023-05-21T05:24:32;100388.13;;;19.02;93.68
9335;BME280;4706;41.844;26.082;2023-05-21T05:26:58;100397.03;;;19.08;92.80
9335;BME280;4706;41.844;26.082;2023-05-21T05:29:24;100399.44;;;19.09;93.36
9335;BME280;4706;41.844;26.082;2023-05-21T05:31:49;100390.03;;;18.98;94.28
9335;BME280;4706;41.844;26.082;2023-05-21T05:34:15;100400.38;;;18.98;95.00
9335;BME280;4706;41.844;26.082;2023-05-21T05:36:40;100391.81;;;19.06;94.78
9335;BME280;4706;41.844;26.082;2023-05-21T05:39:05;100382.47;;;19.14;95.23
9335;BME280;4706;41.844;26.082;2023-05-21T05:41:31;100390.69;;;19.27;95.32
9335;BME280;4706;41.844;26.082;2023-05-21T05:43:57;100392.91;;;19.37;94.93
9335;BME280;4706;41.844;26.082;2023-05-21T05:46:23;100388.50;;;19.36;94.82
9335;BME280;4706;41.844;26.082;2023-05-21T05:48:48;100384.91;;;19.35;95.91
9335;BME280;4706;41.844;26.082;2023-05-21T05:51:14;100375.28;;;19.33;96.19
9335;BME280;4706;41.844;26.082;2023-05-21T05:53:41;100389.75;;;19.38;96.07
9335;BME280;4706;41.844;26.082;2023-05-21T05:56:06;100403.16;;;19.33;95.37
9335;BME280;4706;41.844;26.082;2023-05-21T05:58:32;100397.66;;;19.36;95.25
9335;BME280;4706;41.844;26.082;2023-05-21T06:00:57;100397.25;;;19.34;95.38
9335;BME280;4706;41.844;26.082;2023-05-21T06:03:23;100392.84;;;19.33;94.50
9335;BME280;4706;41.844;26.082;2023-05-21T06:05:48;100396.06;;;19.35;93.92
9335;BME280;4706;41.844;26.082;2023-05-21T06:08:14;100398.06;;;19.54;93.31
9335;BME280;4706;41.844;26.082;2023-05-21T06:10:40;100390.41;;;19.51;94.16
9335;BME280;4706;41.844;26.082;2023-05-21T06:13:05;100390.03;;;19.69;93.13
9335;BME280;4706;41.844;26.082;2023-05-21T06:15:32;100401.13;;;19.65;92.51
9335;BME280;4706;41.844;26.082;2023-05-21T06:17:57;100400.16;;;19.77;91.73
9335;BME280;4706;41.844;26.082;2023-05-21T06:20:23;100399.06;;;19.81;93.45
9335;BME280;4706;41.844;26.082;2023-05-21T06:22:48;100397.28;;;19.93;92.95
9335;BME280;4706;41.844;26.082;2023-05-21T06:25:14;100394.50;;;19.93;93.70
9335;BME280;4706;41.844;26.082;2023-05-21T06:27:40;100395.97;;;19.86;93.73
9335;BME280;4706;41.844;26.082;2023-05-21T06:30:06;100396.56;;;19.76;91.98
9335;BME280;4706;41.844;26.082;2023-05-21T06:32:32;100403.59;;;19.89;91.54
9335;BME280;4706;41.844;26.082;2023-05-21T06:34:58;100395.28;;;19.93;91.21
9335;BME280;4706;41.844;26.082;2023-05-21T06:37:23;100395.00;;;19.98;90.68
9335;BME280;4706;41.844;26.082;2023-05-21T06:39:49;100391.97;;;20.07;89.41
9335;BME280;4706;41.844;26.082;2023-05-21T06:42:14;100380.41;;;20.05;89.30
9335;BME280;4706;41.844;26.082;2023-05-21T06:44:40;100386.06;;;20.08;90.55
9335;BME280;4706;41.844;26.082;2023-05-21T06:47:06;100390.78;;;20.08;88.93
9335;BME280;4706;41.844;26.082;2023-05-21T06:49:31;100387.84;;;20.20;87.41
9335;BME280;4706;41.844;26.082;2023-05-21T06:51:57;100384.19;;;20.16;87.44
9335;BME280;4706;41.844;26.082;2023-05-21T06:54:22;100381.41;;;20.16;87.20
9335;BME280;4706;41.844;26.082;2023-05-21T06:56:48;100378.16;;;20.14;89.35
9335;BME280;4706;41.844;26.082;2023-05-21T06:59:14;100387.00;;;20.39;90.38
9335;BME280;4706;41.844;26.082;2023-05-21T07:01:39;100387.84;;;20.63;90.69
9335;BME280;4706;41.844;26.082;2023-05-21T07:04:07;100391.56;;;20.97;86.94
9335;BME280;4706;41.844;26.082;2023-05-21T07:06:33;100387.69;;;21.05;86.21
9335;BME280;4706;41.844;26.082;2023-05-21T07:08:59;100379.03;;;21.14;83.36
9335;BME280;4706;41.844;26.082;2023-05-21T07:11:25;100384.72;;;21.21;81.72
9335;BME280;4706;41.844;26.082;2023-05-21T07:13:55;100390.97;;;21.33;79.67
9335;BME280;4706;41.844;26.082;2023-05-21T07:16:21;100386.31;;;21.45;79.19
9335;BME280;4706;41.844;26.082;2023-05-21T07:18:46;100390.03;;;21.26;78.40
9335;BME280;4706;41.844;26.082;2023-05-21T07:21:11;100391.88;;;21.41;80.46
9335;BME280;4706;41.844;26.082;2023-05-21T07:23:37;100388.06;;;21.56;79.76
9335;BME280;4706;41.844;26.082;2023-05-21T07:26:03;100383.63;;;21.52;76.27
9335;BME280;4706;41.844;26.082;2023-05-21T07:28:28;100372.97;;;21.65;77.71
9335;BME280;4706;41.844;26.082;2023-05-21T07:30:54;100387.09;;;21.75;76.95
9335;BME280;4706;41.844;26.082;2023-05-21T07:33:19;100388.22;;;22.01;79.20
9335;BME280;4706;41.844;26.082;2023-05-21T07:35:47;100378.72;;;22.13;75.19
9335;BME280;4706;41.844;26.082;2023-05-21T07:38:12;100386.53;;;22.30;74.17
9335;BME280;4706;41.844;26.082;2023-05-21T07:40:38;100392.31;;;22.48;73.96
9335;BME280;4706;41.844;26.082;2023-05-21T07:43:03;100391.91;;;22.46;70.77
9335;BME280;4706;41.844;26.082;2023-05-21T07:45:29;100385.38;;;22.35;72.23
9335;BME280;4706;41.844;26.082;2023-05-21T07:47:54;100390.16;;;22.30;72.84
9335;BME280;4706;41.844;26.082;2023-05-21T07:50:20;100388.16;;;22.31;73.67
9335;BME280;4706;41.844;26.082;2023-05-21T07:52:46;100395.84;;;22.41;75.34
9335;BME280;4706;41.844;26.082;2023-05-21T07:55:12;100386.25;;;22.42;74.20
9335;BME280;4706;41.844;26.082;2023-05-21T07:57:37;100387.72;;;22.29;71.90
9335;BME280;4706;41.844;26.082;2023-05-21T08:00:03;100391.78;;;22.35;73.26
9335;BME280;4706;41.844;26.082;2023-05-21T08:02:32;100390.63;;;22.40;73.22
9335;BME280;4706;41.844;26.082;2023-05-21T08:04:58;100386.53;;;22.30;70.90
9335;BME280;4706;41.844;26.082;2023-05-21T08:07:26;100390.22;;;22.41;73.31
9335;BME280;4706;41.844;26.082;2023-05-21T08:09:52;100393.06;;;22.45;73.64
9335;BME280;4706;41.844;26.082;2023-05-21T08:12:18;100375.44;;;22.44;73.62
9335;BME280;4706;41.844;26.082;2023-05-21T08:14:44;100385.25;;;22.65;71.72
9335;BME280;4706;41.844;26.082;2023-05-21T08:17:09;100387.78;;;22.81;71.19
9335;BME280;4706;41.844;26.082;2023-05-21T08:19:37;100378.94;;;22.78;72.45
9335;BME280;4706;41.844;26.082;2023-05-21T08:22:03;100378.94;;;22.78;72.45
9335;BME280;4706;41.844;26.082;2023-05-21T08:24:31;100378.16;;;22.78;71.94
9335;BME280;4706;41.844;26.082;2023-05-21T08:26:56;100380.16;;;22.77;70.65
9335;BME280;4706;41.844;26.082;2023-05-21T08:29:22;100377.03;;;22.90;70.90
9335;BME280;4706;41.844;26.082;2023-05-21T08:31:47;100371.56;;;23.04;70.90
9335;BME280;4706;41.844;26.082;2023-05-21T08:34:13;100383.63;;;23.12;72.00
9335;BME280;4706;41.844;26.082;2023-05-21T08:36:38;100379.63;;;23.13;69.79
9335;BME280;4706;41.844;26.082;2023-05-21T08:39:07;100388.84;;;23.17;67.72
9335;BME280;4706;41.844;26.082;2023-05-21T08:41:34;100389.75;;;23.24;69.07
9335;BME280;4706;41.844;26.082;2023-05-21T08:44:01;100390.88;;;23.20;68.15
9335;BME280;4706;41.844;26.082;2023-05-21T08:46:32;100374.56;;;23.36;68.41
9335;BME280;4706;41.844;26.082;2023-05-21T08:49:01;100387.00;;;23.42;66.50
9335;BME280;4706;41.844;26.082;2023-05-21T08:51:27;100381.47;;;23.53;64.92
9335;BME280;4706;41.844;26.082;2023-05-21T08:53:54;100377.00;;;23.45;65.00
9335;BME280;4706;41.844;26.082;2023-05-21T08:56:21;100382.69;;;23.59;65.38
9335;BME280;4706;41.844;26.082;2023-05-21T08:58:47;100380.25;;;23.47;63.29
9335;BME280;4706;41.844;26.082;2023-05-21T09:01:13;100380.22;;;23.50;63.58
9335;BME280;4706;41.844;26.082;2023-05-21T09:03:39;100390.19;;;23.37;63.93
9335;BME280;4706;41.844;26.082;2023-05-21T09:06:09;100389.47;;;23.47;66.30
9335;BME280;4706;41.844;26.082;2023-05-21T09:08:38;100386.28;;;23.52;68.68
9335;BME280;4706;41.844;26.082;2023-05-21T09:11:07;100385.44;;;23.48;70.05
9335;BME280;4706;41.844;26.082;2023-05-21T09:13:33;100390.97;;;23.34;69.56
9335;BME280;4706;41.844;26.082;2023-05-21T09:16:00;100394.16;;;23.25;69.51
9335;BME280;4706;41.844;26.082;2023-05-21T09:18:25;100405.69;;;23.17;69.87
9335;BME280;4706;41.844;26.082;2023-05-21T09:20:51;100408.47;;;23.10;71.04
9335;BME280;4706;41.844;26.082;2023-05-21T09:23:18;100405.22;;;23.04;71.23
9335;BME280;4706;41.844;26.082;2023-05-21T09:25:48;100398.78;;;23.00;70.65
9335;BME280;4706;41.844;26.082;2023-05-21T09:28:15;100407.22;;;23.03;69.63
9335;BME280;4706;41.844;26.082;2023-05-21T09:30:45;100400.31;;;22.94;70.73
9335;BME280;4706;41.844;26.082;2023-05-21T09:33:11;100405.56;;;22.95;71.61
9335;BME280;4706;41.844;26.082;2023-05-21T09:35:43;100391.41;;;22.81;72.63
9335;BME280;4706;41.844;26.082;2023-05-21T09:38:09;100407.06;;;22.89;73.81
9335;BME280;4706;41.844;26.082;2023-05-21T09:40:34;100402.22;;;22.83;73.79
9335;BME280;4706;41.844;26.082;2023-05-21T09:43:00;100403.47;;;22.89;72.75
9335;BME280;4706;41.844;26.082;2023-05-21T09:45:27;100409.59;;;23.01;71.62
9335;BME280;4706;41.844;26.082;2023-05-21T09:47:54;100405.97;;;22.97;71.57
9335;BME280;4706;41.844;26.082;2023-05-21T09:50:26;100410.09;;;23.11;72.03
9335;BME280;4706;41.844;26.082;2023-05-21T09:52:53;100400.09;;;23.20;70.97
9335;BME280;4706;41.844;26.082;2023-05-21T09:55:24;100401.81;;;23.32;70.31
9335;BME280;4706;41.844;26.082;2023-05-21T09:57:51;100396.56;;;23.27;70.23
9335;BME280;4706;41.844;26.082;2023-05-21T10:02:46;100394.28;;;23.47;70.83
9335;BME280;4706;41.844;26.082;2023-05-21T10:05:13;100401.56;;;23.59;70.72
9335;BME280;4706;41.844;26.082;2023-05-21T10:07:47;100390.03;;;23.78;69.07
9335;BME280;4706;41.844;26.082;2023-05-21T10:10:13;100389.72;;;24.08;68.56
9335;BME280;4706;41.844;26.082;2023-05-21T10:12:46;100387.34;;;24.28;67.33
9335;BME280;4706;41.844;26.082;2023-05-21T10:15:16;100393.44;;;24.52;66.23
9335;BME280;4706;41.844;26.082;2023-05-21T10:17:45;100383.41;;;24.79;63.70
9335;BME280;4706;41.844;26.082;2023-05-21T10:20:12;100379.38;;;24.87;63.00
9335;BME280;4706;41.844;26.082;2023-05-21T10:22:39;100386.19;;;24.93;62.63
9335;BME280;4706;41.844;26.082;2023-05-21T10:25:07;100382.13;;;25.34;63.38
9335;BME280;4706;41.844;26.082;2023-05-21T10:27:36;100380.78;;;25.85;62.01
9335;BME280;4706;41.844;26.082;2023-05-21T10:30:04;100376.19;;;26.12;60.19
9335;BME280;4706;41.844;26.082;2023-05-21T10:32:31;100384.84;;;26.47;59.41
9335;BME280;4706;41.844;26.082;2023-05-21T10:34:57;100378.72;;;26.55;59.06
9335;BME280;4706;41.844;26.082;2023-05-21T10:37:23;100386.41;;;26.51;59.36
9335;BME280;4706;41.844;26.082;2023-05-21T10:39:52;100382.13;;;26.29;59.05
9335;BME280;4706;41.844;26.082;2023-05-21T10:55:49;100384.13;;;25.44;60.63
9335;BME280;4706;41.844;26.082;2023-05-21T11:00:41;100389.75;;;25.40;60.57
9335;BME280;4706;41.844;26.082;2023-05-21T11:03:10;100394.63;;;25.29;60.76
9335;BME280;4706;41.844;26.082;2023-05-21T11:05:56;100394.63;;;25.22;60.93
9335;BME280;4706;41.844;26.082;2023-05-21T11:08:26;100387.78;;;25.19;61.72
9335;BME280;4706;41.844;26.082;2023-05-21T11:10:57;100392.63;;;25.23;61.83
9335;BME280;4706;41.844;26.082;2023-05-21T11:13:24;100389.44;;;25.13;62.15
9335;BME280;4706;41.844;26.082;2023-05-21T11:18:22;100382.97;;;25.06;62.85
9335;BME280;4706;41.844;26.082;2023-05-21T11:20:51;100385.81;;;24.99;63.44
9335;BME280;4706;41.844;26.082;2023-05-21T11:23:20;100384.59;;;24.89;63.51
9335;BME280;4706;41.844;26.082;2023-05-21T11:26:01;100380.97;;;24.92;62.77
9335;BME280;4706;41.844;26.082;2023-05-21T11:28:35;100384.22;;;24.94;61.81
9335;BME280;4706;41.844;26.082;2023-05-21T11:31:34;100382.59;;;24.82;61.81
9335;BME280;4706;41.844;26.082;2023-05-21T11:36:48;100380.59;;;24.76;60.96
9335;BME280;4706;41.844;26.082;2023-05-21T11:39:18;100376.56;;;24.62;61.40
9335;BME280;4706;41.844;26.082;2023-05-21T11:44:15;100354.84;;;24.31;62.94
9335;BME280;4706;41.844;26.082;2023-05-21T11:46:41;100376.13;;;24.32;63.96
9335;BME280;4706;41.844;26.082;2023-05-21T11:49:08;100384.13;;;24.15;64.77
9335;BME280;4706;41.844;26.082;2023-05-21T11:51:35;100372.47;;;24.13;65.26
9335;BME280;4706;41.844;26.082;2023-05-21T11:54:01;100372.06;;;24.04;66.22
9335;BME280;4706;41.844;26.082;2023-05-21T11:56:27;100363.22;;;24.06;66.64
9335;BME280;4706;41.844;26.082;2023-05-21T11:58:53;100364.81;;;24.10;66.87
9335;BME280;4706;41.844;26.082;2023-05-21T12:01:23;100358.41;;;24.06;66.86
9335;BME280;4706;41.844;26.082;2023-05-21T12:03:49;100351.94;;;23.95;67.51
9335;BME280;4706;41.844;26.082;2023-05-21T12:06:14;100350.78;;;23.96;68.12
9335;BME280;4706;41.844;26.082;2023-05-21T12:08:42;100343.94;;;23.97;67.73
9335;BME280;4706;41.844;26.082;2023-05-21T12:11:09;100340.34;;;24.04;67.70
9335;BME280;4706;41.844;26.082;2023-05-21T12:13:35;100323.06;;;23.98;68.14
9335;BME280;4706;41.844;26.082;2023-05-21T12:16:01;100343.94;;;24.01;68.38
9335;BME280;4706;41.844;26.082;2023-05-21T12:18:27;100331.09;;;24.03;68.78
9335;BME280;4706;41.844;26.082;2023-05-21T12:20:53;100332.31;;;24.06;69.05
9335;BME280;4706;41.844;26.082;2023-05-21T12:23:19;100326.69;;;24.09;69.30
9335;BME280;4706;41.844;26.082;2023-05-21T12:25:47;100322.69;;;24.10;69.28
9335;BME280;4706;41.844;26.082;2023-05-21T12:28:14;100314.25;;;23.96;69.96
9335;BME280;4706;41.844;26.082;2023-05-21T12:30:40;100318.25;;;23.98;70.05
9335;BME280;4706;41.844;26.082;2023-05-21T12:33:05;100315.06;;;24.07;69.66
9335;BME280;4706;41.844;26.082;2023-05-21T12:35:31;100304.63;;;24.08;69.41
9335;BME280;4706;41.844;26.082;2023-05-21T12:37:59;100309.06;;;24.16;69.25
9335;BME280;4706;41.844;26.082;2023-05-21T12:40:37;100311.03;;;24.05;68.72
9335;BME280;4706;41.844;26.082;2023-05-21T12:43:04;100314.25;;;24.03;69.70
9335;BME280;4706;41.844;26.082;2023-05-21T12:45:31;100312.66;;;24.13;69.33
9335;BME280;4706;41.844;26.082;2023-05-21T12:48:00;100305.03;;;24.28;68.97
9335;BME280;4706;41.844;26.082;2023-05-21T12:50:25;100301.81;;;24.36;67.08
9335;BME280;4706;41.844;26.082;2023-05-21T12:52:55;100304.66;;;24.47;64.51
9335;BME280;4706;41.844;26.082;2023-05-21T12:55:25;100305.47;;;24.44;64.67
9335;BME280;4706;41.844;26.082;2023-05-21T12:58:01;100290.19;;;24.52;61.91
9335;BME280;4706;41.844;26.082;2023-05-21T13:00:28;100294.22;;;24.62;62.45
9335;BME280;4706;41.844;26.082;2023-05-21T13:02:54;100295.44;;;24.57;62.59
9335;BME280;4706;41.844;26.082;2023-05-21T13:05:21;100293.84;;;24.56;60.45
9335;BME280;4706;41.844;26.082;2023-05-21T13:07:46;100288.59;;;24.58;61.21
9335;BME280;4706;41.844;26.082;2023-05-21T13:10:12;100281.38;;;24.64;57.33
9335;BME280;4706;41.844;26.082;2023-05-21T13:12:38;100281.34;;;24.71;56.05
9335;BME280;4706;41.844;26.082;2023-05-21T13:15:04;100287.78;;;24.65;56.74
9335;BME280;4706;41.844;26.082;2023-05-21T13:17:32;100287.38;;;24.63;57.27
9335;BME280;4706;41.844;26.082;2023-05-21T13:20:08;100284.19;;;24.54;56.47
9335;BME280;4706;41.844;26.082;2023-05-21T13:22:35;100273.75;;;24.43;54.43
9335;BME280;4706;41.844;26.082;2023-05-21T13:25:03;100272.94;;;24.43;52.92
9335;BME280;4706;41.844;26.082;2023-05-21T13:27:29;100278.16;;;24.30;54.39
9335;BME280;4706;41.844;26.082;2023-05-21T13:29:54;100275.72;;;24.36;54.52
9335;BME280;4706;41.844;26.082;2023-05-21T13:32:20;100279.75;;;24.35;54.03